Weather at UNFICYP Helipad

Public forecast

Using degrees Celsius for public forecast. Weather courtesy of forecast.io.

Closest aviation weather report (METAR) to UNFICYP Helipad

Closest report is Paphos International Airport, 28.1 nm (52.0 km) SSW.

2024/06/16 20:30 (retrieved 19 minutes ago)

LCPH 162030Z AUTO 33004KT 9999 NCD 25/23 Q1007 NOSIG

Closest aviation forecast (TAF) to UNFICYP Helipad

Closest forecast is Paphos International Airport, 28.1 nm (52.0 km) SSW.

2024/06/16 18:28 (retrieved 2 hours ago)

TAF LCPH 161730Z 1618/1718 31010KT 9999 FEW015 BECMG 1618/1620 01007KT PROB40 TEMPO 1618/1706 BKN010 BECMG 1706/1709 22010KT BECMG 1713/1716 30008KT